sensor_id;sensor_type;location;lat;lon;timestamp;temperature;humidity
29891;DHT22;16759;49.540;8.642;2022-11-10T00:01:58;10.60;99.90
29891;DHT22;16759;49.540;8.642;2022-11-10T00:04:23;10.40;99.90
29891;DHT22;16759;49.540;8.642;2022-11-10T00:06:49;10.50;99.90
29891;DHT22;16759;49.540;8.642;2022-11-10T00:09:14;10.40;99.90
29891;DHT22;16759;49.540;8.642;2022-11-10T00:11:40;10.40;99.90
29891;DHT22;16759;49.540;8.642;2022-11-10T00:14:09;10.50;99.90
29891;DHT22;16759;49.540;8.642;2022-11-10T00:17:03;10.40;99.90
29891;DHT22;16759;49.540;8.642;2022-11-10T00:19:32;10.20;99.90
29891;DHT22;16759;49.540;8.642;2022-11-10T00:21:58;10.20;99.90
29891;DHT22;16759;49.540;8.642;2022-11-10T00:24:24;10.10;99.90
29891;DHT22;16759;49.540;8.642;2022-11-10T00:26:50;10.00;99.90
29891;DHT22;16759;49.540;8.642;2022-11-10T00:29:16;10.00;99.90
29891;DHT22;16759;49.540;8.642;2022-11-10T00:31:41;10.00;99.90
29891;DHT22;16759;49.540;8.642;2022-11-10T00:34:10;10.20;99.90
29891;DHT22;16759;49.540;8.642;2022-11-10T00:36:38;10.30;99.90
29891;DHT22;16759;49.540;8.642;2022-11-10T00:39:03;10.00;99.90
29891;DHT22;16759;49.540;8.642;2022-11-10T00:41:29;10.20;99.90
29891;DHT22;16759;49.540;8.642;2022-11-10T00:43:54;10.10;99.90
29891;DHT22;16759;49.540;8.642;2022-11-10T00:46:20;10.10;99.90
29891;DHT22;16759;49.540;8.642;2022-11-10T00:48:48;10.30;99.90
29891;DHT22;16759;49.540;8.642;2022-11-10T00:51:23;10.10;99.90
29891;DHT22;16759;49.540;8.642;2022-11-10T00:53:48;10.20;99.90
29891;DHT22;16759;49.540;8.642;2022-11-10T00:56:14;10.20;99.90
29891;DHT22;16759;49.540;8.642;2022-11-10T00:58:42;10.00;99.90
29891;DHT22;16759;49.540;8.642;2022-11-10T01:01:08;10.10;99.90
29891;DHT22;16759;49.540;8.642;2022-11-10T01:03:34;10.00;99.90
29891;DHT22;16759;49.540;8.642;2022-11-10T01:06:06;10.10;99.90
29891;DHT22;16759;49.540;8.642;2022-11-10T01:08:32;9.90;99.90
29891;DHT22;16759;49.540;8.642;2022-11-10T01:11:04;10.00;99.90
29891;DHT22;16759;49.540;8.642;2022-11-10T01:13:35;9.90;99.90
29891;DHT22;16759;49.540;8.642;2022-11-10T01:16:08;9.90;99.90
29891;DHT22;16759;49.540;8.642;2022-11-10T01:18:34;9.80;99.90
29891;DHT22;16759;49.540;8.642;2022-11-10T01:21:00;9.60;99.90
29891;DHT22;16759;49.540;8.642;2022-11-10T01:23:26;9.70;99.90
29891;DHT22;16759;49.540;8.642;2022-11-10T01:25:55;9.60;99.90
29891;DHT22;16759;49.540;8.642;2022-11-10T01:28:20;9.50;99.90
29891;DHT22;16759;49.540;8.642;2022-11-10T01:30:55;9.60;99.90
29891;DHT22;16759;49.540;8.642;2022-11-10T01:33:22;9.90;99.90
29891;DHT22;16759;49.540;8.642;2022-11-10T01:35:48;9.80;99.90
29891;DHT22;16759;49.540;8.642;2022-11-10T01:38:13;9.50;99.90
29891;DHT22;16759;49.540;8.642;2022-11-10T01:40:39;9.80;99.90
29891;DHT22;16759;49.540;8.642;2022-11-10T01:43:04;9.50;99.90
29891;DHT22;16759;49.540;8.642;2022-11-10T01:48:16;9.30;99.90
29891;DHT22;16759;49.540;8.642;2022-11-10T01:50:42;9.70;99.90
29891;DHT22;16759;49.540;8.642;2022-11-10T01:53:11;9.50;99.90
29891;DHT22;16759;49.540;8.642;2022-11-10T01:55:40;9.50;99.90
29891;DHT22;16759;49.540;8.642;2022-11-10T01:58:07;9.80;99.90
29891;DHT22;16759;49.540;8.642;2022-11-10T02:00:33;9.70;99.90
29891;DHT22;16759;49.540;8.642;2022-11-10T02:03:07;9.70;99.90
29891;DHT22;16759;49.540;8.642;2022-11-10T02:05:33;9.70;99.90
29891;DHT22;16759;49.540;8.642;2022-11-10T02:08:00;9.60;99.90
29891;DHT22;16759;49.540;8.642;2022-11-10T02:10:26;9.50;99.90
29891;DHT22;16759;49.540;8.642;2022-11-10T02:12:52;9.50;99.90
29891;DHT22;16759;49.540;8.642;2022-11-10T02:15:17;9.60;99.90
29891;DHT22;16759;49.540;8.642;2022-11-10T02:17:45;9.40;99.90
29891;DHT22;16759;49.540;8.642;2022-11-10T02:20:12;9.30;99.90
29891;DHT22;16759;49.540;8.642;2022-11-10T02:22:38;9.40;99.90
29891;DHT22;16759;49.540;8.642;2022-11-10T02:25:04;9.60;99.90
29891;DHT22;16759;49.540;8.642;2022-11-10T02:27:32;9.50;99.90
29891;DHT22;16759;49.540;8.642;2022-11-10T02:29:58;9.30;99.90
29891;DHT22;16759;49.540;8.642;2022-11-10T02:32:24;9.40;99.90
29891;DHT22;16759;49.540;8.642;2022-11-10T02:34:49;9.20;99.90
29891;DHT22;16759;49.540;8.642;2022-11-10T02:37:17;9.40;99.90
29891;DHT22;16759;49.540;8.642;2022-11-10T02:39:43;9.50;99.90
29891;DHT22;16759;49.540;8.642;2022-11-10T02:42:08;9.50;99.90
29891;DHT22;16759;49.540;8.642;2022-11-10T02:44:35;9.20;99.90
29891;DHT22;16759;49.540;8.642;2022-11-10T02:47:03;9.20;99.90
29891;DHT22;16759;49.540;8.642;2022-11-10T02:49:28;9.10;99.90
29891;DHT22;16759;49.540;8.642;2022-11-10T02:51:54;9.20;99.90
29891;DHT22;16759;49.540;8.642;2022-11-10T02:54:19;9.10;99.90
29891;DHT22;16759;49.540;8.642;2022-11-10T02:56:45;9.40;99.90
29891;DHT22;16759;49.540;8.642;2022-11-10T02:59:10;9.10;99.90
29891;DHT22;16759;49.540;8.642;2022-11-10T03:01:36;9.00;99.90
29891;DHT22;16759;49.540;8.642;2022-11-10T03:04:01;9.30;99.90
29891;DHT22;16759;49.540;8.642;2022-11-10T03:06:30;9.00;99.90
29891;DHT22;16759;49.540;8.642;2022-11-10T03:08:55;8.90;99.90
29891;DHT22;16759;49.540;8.642;2022-11-10T03:11:21;8.80;99.90
29891;DHT22;16759;49.540;8.642;2022-11-10T03:13:46;9.10;99.90
29891;DHT22;16759;49.540;8.642;2022-11-10T03:16:12;9.10;99.90
29891;DHT22;16759;49.540;8.642;2022-11-10T03:18:40;9.10;99.90
29891;DHT22;16759;49.540;8.642;2022-11-10T03:21:05;9.00;99.90
29891;DHT22;16759;49.540;8.642;2022-11-10T03:23:33;9.00;99.90
29891;DHT22;16759;49.540;8.642;2022-11-10T03:26:02;8.90;99.90
29891;DHT22;16759;49.540;8.642;2022-11-10T03:28:27;8.70;99.90
29891;DHT22;16759;49.540;8.642;2022-11-10T03:30:55;9.00;99.90
29891;DHT22;16759;49.540;8.642;2022-11-10T03:33:21;8.70;99.90
29891;DHT22;16759;49.540;8.642;2022-11-10T03:35:46;8.80;99.90
29891;DHT22;16759;49.540;8.642;2022-11-10T03:38:12;9.10;99.90
29891;DHT22;16759;49.540;8.642;2022-11-10T03:40:37;8.90;99.90
29891;DHT22;16759;49.540;8.642;2022-11-10T03:43:03;9.20;99.90
29891;DHT22;16759;49.540;8.642;2022-11-10T03:45:28;9.10;99.90
29891;DHT22;16759;49.540;8.642;2022-11-10T03:47:54;9.20;99.90
29891;DHT22;16759;49.540;8.642;2022-11-10T03:50:19;9.00;99.90
29891;DHT22;16759;49.540;8.642;2022-11-10T03:52:45;9.20;99.90
29891;DHT22;16759;49.540;8.642;2022-11-10T03:55:12;9.10;99.90
29891;DHT22;16759;49.540;8.642;2022-11-10T03:57:38;9.00;99.90
29891;DHT22;16759;49.540;8.642;2022-11-10T04:00:04;9.00;99.90
29891;DHT22;16759;49.540;8.642;2022-11-10T04:02:32;8.80;99.90
29891;DHT22;16759;49.540;8.642;2022-11-10T04:04:57;9.10;99.90
29891;DHT22;16759;49.540;8.642;2022-11-10T04:07:41;9.10;99.90
29891;DHT22;16759;49.540;8.642;2022-11-10T04:10:25;9.00;99.90
29891;DHT22;16759;49.540;8.642;2022-11-10T04:12:51;9.10;99.90
29891;DHT22;16759;49.540;8.642;2022-11-10T04:15:35;9.00;99.90
29891;DHT22;16759;49.540;8.642;2022-11-10T04:18:08;8.80;99.90
29891;DHT22;16759;49.540;8.642;2022-11-10T04:20:48;8.80;99.90
29891;DHT22;16759;49.540;8.642;2022-11-10T04:23:14;8.80;99.90
29891;DHT22;16759;49.540;8.642;2022-11-10T04:28:39;8.80;99.90
29891;DHT22;16759;49.540;8.642;2022-11-10T04:31:05;8.70;99.90
29891;DHT22;16759;49.540;8.642;2022-11-10T04:33:31;8.60;99.90
29891;DHT22;16759;49.540;8.642;2022-11-10T04:35:57;8.70;99.90
29891;DHT22;16759;49.540;8.642;2022-11-10T04:38:22;8.80;99.90
29891;DHT22;16759;49.540;8.642;2022-11-10T04:40:47;8.70;99.90
29891;DHT22;16759;49.540;8.642;2022-11-10T04:43:15;9.00;99.90
29891;DHT22;16759;49.540;8.642;2022-11-10T04:45:41;8.80;99.90
29891;DHT22;16759;49.540;8.642;2022-11-10T04:48:07;8.90;99.90
29891;DHT22;16759;49.540;8.642;2022-11-10T04:50:33;8.80;99.90
29891;DHT22;16759;49.540;8.642;2022-11-10T04:52:58;8.90;99.90
29891;DHT22;16759;49.540;8.642;2022-11-10T04:55:24;8.60;99.90
29891;DHT22;16759;49.540;8.642;2022-11-10T04:57:52;8.70;99.90
29891;DHT22;16759;49.540;8.642;2022-11-10T05:00:17;9.00;99.90
29891;DHT22;16759;49.540;8.642;2022-11-10T05:02:45;8.70;99.90
29891;DHT22;16759;49.540;8.642;2022-11-10T05:05:10;8.70;99.90
29891;DHT22;16759;49.540;8.642;2022-11-10T05:07:36;8.90;99.90
29891;DHT22;16759;49.540;8.642;2022-11-10T05:10:02;8.80;99.90
29891;DHT22;16759;49.540;8.642;2022-11-10T05:12:28;9.10;99.90
29891;DHT22;16759;49.540;8.642;2022-11-10T05:14:53;9.10;99.90
29891;DHT22;16759;49.540;8.642;2022-11-10T05:17:20;8.80;99.90
29891;DHT22;16759;49.540;8.642;2022-11-10T05:19:45;8.70;99.90
29891;DHT22;16759;49.540;8.642;2022-11-10T05:22:11;8.90;99.90
29891;DHT22;16759;49.540;8.642;2022-11-10T05:24:39;8.80;99.90
29891;DHT22;16759;49.540;8.642;2022-11-10T05:27:05;8.60;99.90
29891;DHT22;16759;49.540;8.642;2022-11-10T05:29:31;8.70;99.90
29891;DHT22;16759;49.540;8.642;2022-11-10T05:31:59;8.80;99.90
29891;DHT22;16759;49.540;8.642;2022-11-10T05:34:27;8.80;99.90
29891;DHT22;16759;49.540;8.642;2022-11-10T05:36:52;8.90;99.90
29891;DHT22;16759;49.540;8.642;2022-11-10T05:39:18;8.80;99.90
29891;DHT22;16759;49.540;8.642;2022-11-10T05:41:43;8.70;99.90
29891;DHT22;16759;49.540;8.642;2022-11-10T05:44:11;8.60;99.90
29891;DHT22;16759;49.540;8.642;2022-11-10T05:46:39;8.70;99.90
29891;DHT22;16759;49.540;8.642;2022-11-10T05:49:04;9.00;99.90
29891;DHT22;16759;49.540;8.642;2022-11-10T05:51:30;9.00;99.90
29891;DHT22;16759;49.540;8.642;2022-11-10T05:53:55;8.80;99.90
29891;DHT22;16759;49.540;8.642;2022-11-10T05:56:21;8.90;99.90
29891;DHT22;16759;49.540;8.642;2022-11-10T05:58:48;9.20;99.90
29891;DHT22;16759;49.540;8.642;2022-11-10T06:01:16;9.40;99.90
29891;DHT22;16759;49.540;8.642;2022-11-10T06:03:41;9.30;99.90
29891;DHT22;16759;49.540;8.642;2022-11-10T06:06:07;9.20;99.90
29891;DHT22;16759;49.540;8.642;2022-11-10T06:08:32;9.20;99.90
29891;DHT22;16759;49.540;8.642;2022-11-10T06:10:58;9.40;99.90
29891;DHT22;16759;49.540;8.642;2022-11-10T06:13:23;9.30;99.90
29891;DHT22;16759;49.540;8.642;2022-11-10T06:15:49;9.30;99.90
29891;DHT22;16759;49.540;8.642;2022-11-10T06:18:15;9.00;99.90
29891;DHT22;16759;49.540;8.642;2022-11-10T06:20:44;9.00;99.90
29891;DHT22;16759;49.540;8.642;2022-11-10T06:23:10;9.20;99.90
29891;DHT22;16759;49.540;8.642;2022-11-10T06:25:36;9.00;99.90
29891;DHT22;16759;49.540;8.642;2022-11-10T06:28:02;9.20;99.90
29891;DHT22;16759;49.540;8.642;2022-11-10T06:30:28;9.00;99.90
29891;DHT22;16759;49.540;8.642;2022-11-10T06:32:54;8.90;99.90
29891;DHT22;16759;49.540;8.642;2022-11-10T06:35:20;8.80;99.90
29891;DHT22;16759;49.540;8.642;2022-11-10T06:37:55;9.00;99.90
29891;DHT22;16759;49.540;8.642;2022-11-10T06:40:21;9.10;99.90
29891;DHT22;16759;49.540;8.642;2022-11-10T06:42:46;9.00;99.90
29891;DHT22;16759;49.540;8.642;2022-11-10T06:45:14;9.00;99.90
29891;DHT22;16759;49.540;8.642;2022-11-10T06:47:39;9.00;99.90
29891;DHT22;16759;49.540;8.642;2022-11-10T06:50:05;9.20;99.90
29891;DHT22;16759;49.540;8.642;2022-11-10T06:52:34;9.10;99.90
29891;DHT22;16759;49.540;8.642;2022-11-10T06:54:59;9.10;99.90
29891;DHT22;16759;49.540;8.642;2022-11-10T06:57:25;9.20;99.90
29891;DHT22;16759;49.540;8.642;2022-11-10T06:59:53;9.00;99.90
29891;DHT22;16759;49.540;8.642;2022-11-10T07:02:18;9.10;99.90
29891;DHT22;16759;49.540;8.642;2022-11-10T07:04:44;9.30;99.90
29891;DHT22;16759;49.540;8.642;2022-11-10T07:07:10;9.40;99.90
29891;DHT22;16759;49.540;8.642;2022-11-10T07:09:35;9.00;99.90
29891;DHT22;16759;49.540;8.642;2022-11-10T07:12:02;9.00;99.90
29891;DHT22;16759;49.540;8.642;2022-11-10T07:14:28;9.40;99.90
29891;DHT22;16759;49.540;8.642;2022-11-10T07:16:53;9.10;99.90
29891;DHT22;16759;49.540;8.642;2022-11-10T07:19:21;9.40;99.90
29891;DHT22;16759;49.540;8.642;2022-11-10T07:21:49;9.40;99.90
29891;DHT22;16759;49.540;8.642;2022-11-10T07:24:14;9.40;99.90
29891;DHT22;16759;49.540;8.642;2022-11-10T07:26:40;9.10;99.90
29891;DHT22;16759;49.540;8.642;2022-11-10T07:29:07;9.30;99.90
29891;DHT22;16759;49.540;8.642;2022-11-10T07:31:35;9.40;99.90
29891;DHT22;16759;49.540;8.642;2022-11-10T07:34:01;9.60;99.90
29891;DHT22;16759;49.540;8.642;2022-11-10T07:36:26;9.70;99.90
29891;DHT22;16759;49.540;8.642;2022-11-10T07:38:53;9.50;99.90
29891;DHT22;16759;49.540;8.642;2022-11-10T07:41:18;9.80;99.90
29891;DHT22;16759;49.540;8.642;2022-11-10T07:43:44;9.70;99.90
29891;DHT22;16759;49.540;8.642;2022-11-10T07:46:09;9.60;99.90
29891;DHT22;16759;49.540;8.642;2022-11-10T07:48:35;9.70;99.90
29891;DHT22;16759;49.540;8.642;2022-11-10T07:51:01;9.70;99.90
29891;DHT22;16759;49.540;8.642;2022-11-10T07:53:26;9.60;99.90
29891;DHT22;16759;49.540;8.642;2022-11-10T07:55:54;9.60;99.90
29891;DHT22;16759;49.540;8.642;2022-11-10T07:58:21;9.90;99.90
29891;DHT22;16759;49.540;8.642;2022-11-10T08:00:47;9.70;99.90
29891;DHT22;16759;49.540;8.642;2022-11-10T08:03:14;9.60;99.90
29891;DHT22;16759;49.540;8.642;2022-11-10T08:05:40;9.80;99.90
29891;DHT22;16759;49.540;8.642;2022-11-10T08:08:06;9.70;99.90
29891;DHT22;16759;49.540;8.642;2022-11-10T08:10:32;9.90;99.90
29891;DHT22;16759;49.540;8.642;2022-11-10T08:12:58;10.30;99.90
29891;DHT22;16759;49.540;8.642;2022-11-10T08:15:24;10.20;99.90
29891;DHT22;16759;49.540;8.642;2022-11-10T08:17:50;10.50;99.90
29891;DHT22;16759;49.540;8.642;2022-11-10T08:20:16;10.40;99.90
29891;DHT22;16759;49.540;8.642;2022-11-10T08:22:41;10.60;99.90
29891;DHT22;16759;49.540;8.642;2022-11-10T08:25:07;10.70;99.90
29891;DHT22;16759;49.540;8.642;2022-11-10T08:27:33;10.70;99.90
29891;DHT22;16759;49.540;8.642;2022-11-10T08:29:58;10.70;99.90
29891;DHT22;16759;49.540;8.642;2022-11-10T08:32:24;10.90;99.90
29891;DHT22;16759;49.540;8.642;2022-11-10T08:34:49;11.00;99.90
29891;DHT22;16759;49.540;8.642;2022-11-10T08:37:15;10.90;99.90
29891;DHT22;16759;49.540;8.642;2022-11-10T08:39:41;11.20;99.90
29891;DHT22;16759;49.540;8.642;2022-11-10T08:42:06;11.00;99.90
29891;DHT22;16759;49.540;8.642;2022-11-10T08:44:34;11.40;99.90
29891;DHT22;16759;49.540;8.642;2022-11-10T08:46:59;11.20;99.90
29891;DHT22;16759;49.540;8.642;2022-11-10T08:49:25;11.40;99.90
29891;DHT22;16759;49.540;8.642;2022-11-10T08:51:50;11.40;99.90
29891;DHT22;16759;49.540;8.642;2022-11-10T08:54:16;11.50;99.90
29891;DHT22;16759;49.540;8.642;2022-11-10T08:56:41;11.50;99.90
29891;DHT22;16759;49.540;8.642;2022-11-10T08:59:07;11.30;99.90
29891;DHT22;16759;49.540;8.642;2022-11-10T09:01:32;11.70;99.90
29891;DHT22;16759;49.540;8.642;2022-11-10T09:03:58;11.60;99.90
29891;DHT22;16759;49.540;8.642;2022-11-10T09:06:23;11.50;99.90
29891;DHT22;16759;49.540;8.642;2022-11-10T09:08:49;11.60;99.90
29891;DHT22;16759;49.540;8.642;2022-11-10T09:11:14;11.60;99.90
29891;DHT22;16759;49.540;8.642;2022-11-10T09:13:39;11.50;99.90
29891;DHT22;16759;49.540;8.642;2022-11-10T09:16:05;11.60;99.90
29891;DHT22;16759;49.540;8.642;2022-11-10T09:18:33;11.60;99.90
29891;DHT22;16759;49.540;8.642;2022-11-10T09:21:00;11.90;99.90
29891;DHT22;16759;49.540;8.642;2022-11-10T09:23:26;11.80;99.90
29891;DHT22;16759;49.540;8.642;2022-11-10T09:25:53;11.80;99.90
29891;DHT22;16759;49.540;8.642;2022-11-10T09:28:19;12.00;99.90
29891;DHT22;16759;49.540;8.642;2022-11-10T09:30:45;12.00;99.90
29891;DHT22;16759;49.540;8.642;2022-11-10T09:33:11;12.20;99.90
29891;DHT22;16759;49.540;8.642;2022-11-10T09:35:39;12.20;99.90
29891;DHT22;16759;49.540;8.642;2022-11-10T09:38:05;12.30;99.90
29891;DHT22;16759;49.540;8.642;2022-11-10T09:42:58;12.30;99.90
29891;DHT22;16759;49.540;8.642;2022-11-10T09:45:29;12.30;99.90
29891;DHT22;16759;49.540;8.642;2022-11-10T09:48:40;12.30;99.90
29891;DHT22;16759;49.540;8.642;2022-11-10T09:50:49;12.40;99.90
29891;DHT22;16759;49.540;8.642;2022-11-10T09:53:18;12.40;99.90
29891;DHT22;16759;49.540;8.642;2022-11-10T09:58:11;12.40;99.90
29891;DHT22;16759;49.540;8.642;2022-11-10T10:00:37;12.50;99.90
29891;DHT22;16759;49.540;8.642;2022-11-10T10:03:04;12.30;99.90
29891;DHT22;16759;49.540;8.642;2022-11-10T10:08:18;12.30;99.90
29891;DHT22;16759;49.540;8.642;2022-11-10T10:10:59;12.60;99.90
29891;DHT22;16759;49.540;8.642;2022-11-10T10:23:51;12.90;99.90
29891;DHT22;16759;49.540;8.642;2022-11-10T10:26:18;12.60;99.90
29891;DHT22;16759;49.540;8.642;2022-11-10T10:28:48;12.90;99.90
29891;DHT22;16759;49.540;8.642;2022-11-10T10:33:46;12.90;99.90
29891;DHT22;16759;49.540;8.642;2022-11-10T10:36:16;13.00;99.90
29891;DHT22;16759;49.540;8.642;2022-11-10T10:38:45;13.40;99.90
29891;DHT22;16759;49.540;8.642;2022-11-10T10:41:19;13.70;99.90
29891;DHT22;16759;49.540;8.642;2022-11-10T10:43:47;13.30;99.90
29891;DHT22;16759;49.540;8.642;2022-11-10T10:46:14;13.30;99.90
29891;DHT22;16759;49.540;8.642;2022-11-10T10:48:42;13.20;99.90
29891;DHT22;16759;49.540;8.642;2022-11-10T10:51:08;13.10;99.90
29891;DHT22;16759;49.540;8.642;2022-11-10T10:53:43;13.30;99.90
29891;DHT22;16759;49.540;8.642;2022-11-10T10:56:19;13.30;99.90
29891;DHT22;16759;49.540;8.642;2022-11-10T10:58:53;13.60;99.90
29891;DHT22;16759;49.540;8.642;2022-11-10T11:01:29;13.50;99.90
29891;DHT22;16759;49.540;8.642;2022-11-10T11:03:55;13.60;99.90
29891;DHT22;16759;49.540;8.642;2022-11-10T11:06:21;13.80;99.90
29891;DHT22;16759;49.540;8.642;2022-11-10T11:09:06;13.90;99.90
29891;DHT22;16759;49.540;8.642;2022-11-10T11:11:33;13.50;99.90
29891;DHT22;16759;49.540;8.642;2022-11-10T11:14:12;13.70;99.90
29891;DHT22;16759;49.540;8.642;2022-11-10T11:16:50;14.60;99.90
29891;DHT22;16759;49.540;8.642;2022-11-10T11:19:19;16.50;99.90
29891;DHT22;16759;49.540;8.642;2022-11-10T11:22:11;16.70;99.90
29891;DHT22;16759;49.540;8.642;2022-11-10T11:37:31;15.60;99.90
29891;DHT22;16759;49.540;8.642;2022-11-10T11:45:17;15.10;99.90
29891;DHT22;16759;49.540;8.642;2022-11-10T11:50:21;14.50;99.90
29891;DHT22;16759;49.540;8.642;2022-11-10T11:52:58;14.90;99.90
29891;DHT22;16759;49.540;8.642;2022-11-10T12:00:26;15.50;99.90
29891;DHT22;16759;49.540;8.642;2022-11-10T12:05:31;16.30;99.90
29891;DHT22;16759;49.540;8.642;2022-11-10T12:08:05;18.50;99.90
29891;DHT22;16759;49.540;8.642;2022-11-10T12:13:14;20.70;99.90
29891;DHT22;16759;49.540;8.642;2022-11-10T12:18:16;19.30;99.90
29891;DHT22;16759;49.540;8.642;2022-11-10T12:26:01;17.90;99.90
29891;DHT22;16759;49.540;8.642;2022-11-10T12:28:40;19.10;99.90
29891;DHT22;16759;49.540;8.642;2022-11-10T12:31:09;19.40;99.90
29891;DHT22;16759;49.540;8.642;2022-11-10T12:33:56;18.70;99.90
29891;DHT22;16759;49.540;8.642;2022-11-10T12:36:25;19.60;99.90
29891;DHT22;16759;49.540;8.642;2022-11-10T12:38:55;18.10;99.90
29891;DHT22;16759;49.540;8.642;2022-11-10T12:41:21;15.90;99.90
29891;DHT22;16759;49.540;8.642;2022-11-10T12:46:15;15.80;99.90
29891;DHT22;16759;49.540;8.642;2022-11-10T12:51:15;19.90;99.90
29891;DHT22;16759;49.540;8.642;2022-11-10T12:53:41;21.30;99.90
29891;DHT22;16759;49.540;8.642;2022-11-10T12:56:15;21.30;99.90
29891;DHT22;16759;49.540;8.642;2022-11-10T12:58:41;21.30;99.90
29891;DHT22;16759;49.540;8.642;2022-11-10T13:01:14;17.90;99.90
29891;DHT22;16759;49.540;8.642;2022-11-10T13:03:51;18.80;99.90
29891;DHT22;16759;49.540;8.642;2022-11-10T13:06:30;17.20;99.90
29891;DHT22;16759;49.540;8.642;2022-11-10T13:08:57;15.90;99.90
29891;DHT22;16759;49.540;8.642;2022-11-10T13:11:33;18.70;99.90
29891;DHT22;16759;49.540;8.642;2022-11-10T13:14:01;19.40;99.90
29891;DHT22;16759;49.540;8.642;2022-11-10T13:19:02;21.10;99.90
29891;DHT22;16759;49.540;8.642;2022-11-10T13:22:02;21.90;99.90
29891;DHT22;16759;49.540;8.642;2022-11-10T13:24:31;21.00;99.90
29891;DHT22;16759;49.540;8.642;2022-11-10T13:26:57;20.80;99.90
29891;DHT22;16759;49.540;8.642;2022-11-10T13:31:56;18.90;99.90
29891;DHT22;16759;49.540;8.642;2022-11-10T13:34:32;21.90;99.90
29891;DHT22;16759;49.540;8.642;2022-11-10T13:37:00;23.40;99.90
29891;DHT22;16759;49.540;8.642;2022-11-10T13:39:29;23.20;99.90
29891;DHT22;16759;49.540;8.642;2022-11-10T13:42:02;22.00;99.90
29891;DHT22;16759;49.540;8.642;2022-11-10T13:44:40;20.80;99.90
29891;DHT22;16759;49.540;8.642;2022-11-10T13:57:23;22.30;99.90
29891;DHT22;16759;49.540;8.642;2022-11-10T13:59:50;23.00;99.90
29891;DHT22;16759;49.540;8.642;2022-11-10T14:04:58;20.20;99.90
29891;DHT22;16759;49.540;8.642;2022-11-10T14:07:26;17.80;99.90
29891;DHT22;16759;49.540;8.642;2022-11-10T14:09:53;16.80;99.90
29891;DHT22;16759;49.540;8.642;2022-11-10T14:12:25;16.40;99.90
29891;DHT22;16759;49.540;8.642;2022-11-10T14:14:59;16.50;99.90
29891;DHT22;16759;49.540;8.642;2022-11-10T14:17:27;16.20;99.90
29891;DHT22;16759;49.540;8.642;2022-11-10T14:19:56;15.90;99.90
29891;DHT22;16759;49.540;8.642;2022-11-10T14:22:34;15.80;99.90
29891;DHT22;16759;49.540;8.642;2022-11-10T14:25:24;15.70;99.90
29891;DHT22;16759;49.540;8.642;2022-11-10T14:27:50;15.60;99.90
29891;DHT22;16759;49.540;8.642;2022-11-10T14:30:28;15.50;99.90
29891;DHT22;16759;49.540;8.642;2022-11-10T14:35:50;15.30;99.90
29891;DHT22;16759;49.540;8.642;2022-11-10T14:38:21;15.20;99.90
29891;DHT22;16759;49.540;8.642;2022-11-10T14:40:49;15.20;99.90
29891;DHT22;16759;49.540;8.642;2022-11-10T14:45:53;15.10;99.90
29891;DHT22;16759;49.540;8.642;2022-11-10T14:48:20;15.10;99.90
29891;DHT22;16759;49.540;8.642;2022-11-10T14:50:46;15.00;99.90
29891;DHT22;16759;49.540;8.642;2022-11-10T14:53:25;14.90;99.90
29891;DHT22;16759;49.540;8.642;2022-11-10T14:55:58;14.90;99.90
29891;DHT22;16759;49.540;8.642;2022-11-10T14:58:36;14.80;99.90
29891;DHT22;16759;49.540;8.642;2022-11-10T15:01:03;14.70;99.90
29891;DHT22;16759;49.540;8.642;2022-11-10T15:05:58;14.60;99.90
29891;DHT22;16759;49.540;8.642;2022-11-10T15:08:25;14.50;99.90
29891;DHT22;16759;49.540;8.642;2022-11-10T15:10:51;14.50;99.90
29891;DHT22;16759;49.540;8.642;2022-11-10T15:15:58;14.30;99.90
29891;DHT22;16759;49.540;8.642;2022-11-10T15:18:37;14.20;99.90
29891;DHT22;16759;49.540;8.642;2022-11-10T15:21:04;14.10;99.90
29891;DHT22;16759;49.540;8.642;2022-11-10T15:23:32;14.10;99.90
29891;DHT22;16759;49.540;8.642;2022-11-10T15:25:59;14.10;99.90
29891;DHT22;16759;49.540;8.642;2022-11-10T15:28:28;14.00;99.90
29891;DHT22;16759;49.540;8.642;2022-11-10T15:30:59;13.80;99.90
29891;DHT22;16759;49.540;8.642;2022-11-10T15:33:26;13.70;99.90
29891;DHT22;16759;49.540;8.642;2022-11-10T15:35:53;13.60;99.90
29891;DHT22;16759;49.540;8.642;2022-11-10T15:40:49;13.20;99.90
29891;DHT22;16759;49.540;8.642;2022-11-10T15:45:45;13.20;99.90
29891;DHT22;16759;49.540;8.642;2022-11-10T15:48:12;13.10;99.90
29891;DHT22;16759;49.540;8.642;2022-11-10T15:50:38;12.90;99.90
29891;DHT22;16759;49.540;8.642;2022-11-10T15:53:10;12.80;99.90
29891;DHT22;16759;49.540;8.642;2022-11-10T15:55:36;12.70;99.90
29891;DHT22;16759;49.540;8.642;2022-11-10T15:58:07;12.60;99.90
29891;DHT22;16759;49.540;8.642;2022-11-10T16:00:34;12.50;99.90
29891;DHT22;16759;49.540;8.642;2022-11-10T16:03:00;12.60;99.90
29891;DHT22;16759;49.540;8.642;2022-11-10T16:05:25;12.50;99.90
29891;DHT22;16759;49.540;8.642;2022-11-10T16:07:51;12.30;99.90
29891;DHT22;16759;49.540;8.642;2022-11-10T16:10:19;12.40;99.90
29891;DHT22;16759;49.540;8.642;2022-11-10T16:12:44;12.20;99.90
29891;DHT22;16759;49.540;8.642;2022-11-10T16:15:15;12.10;99.90
29891;DHT22;16759;49.540;8.642;2022-11-10T16:17:41;12.10;99.90
29891;DHT22;16759;49.540;8.642;2022-11-10T16:20:12;12.10;99.90
29891;DHT22;16759;49.540;8.642;2022-11-10T16:22:43;12.00;99.90
29891;DHT22;16759;49.540;8.642;2022-11-10T16:25:11;11.80;99.90
29891;DHT22;16759;49.540;8.642;2022-11-10T16:27:36;11.80;99.90
29891;DHT22;16759;49.540;8.642;2022-11-10T16:30:04;12.10;99.90
29891;DHT22;16759;49.540;8.642;2022-11-10T16:32:30;11.90;99.90
29891;DHT22;16759;49.540;8.642;2022-11-10T16:34:55;11.90;99.90
29891;DHT22;16759;49.540;8.642;2022-11-10T16:37:21;11.60;99.90
29891;DHT22;16759;49.540;8.642;2022-11-10T16:39:46;11.50;99.90
29891;DHT22;16759;49.540;8.642;2022-11-10T16:42:14;11.80;99.90
29891;DHT22;16759;49.540;8.642;2022-11-10T16:44:40;11.80;99.90
29891;DHT22;16759;49.540;8.642;2022-11-10T16:47:07;11.50;99.90
29891;DHT22;16759;49.540;8.642;2022-11-10T16:49:40;11.60;99.90
29891;DHT22;16759;49.540;8.642;2022-11-10T16:52:10;11.30;99.90
29891;DHT22;16759;49.540;8.642;2022-11-10T16:54:37;11.30;99.90
29891;DHT22;16759;49.540;8.642;2022-11-10T16:57:05;11.30;99.90
29891;DHT22;16759;49.540;8.642;2022-11-10T16:59:34;11.10;99.90
29891;DHT22;16759;49.540;8.642;2022-11-10T17:02:00;11.20;99.90
29891;DHT22;16759;49.540;8.642;2022-11-10T17:04:27;11.00;99.90
29891;DHT22;16759;49.540;8.642;2022-11-10T17:06:55;11.10;99.90
29891;DHT22;16759;49.540;8.642;2022-11-10T17:09:21;10.90;99.90
29891;DHT22;16759;49.540;8.642;2022-11-10T17:11:47;10.80;99.90
29891;DHT22;16759;49.540;8.642;2022-11-10T17:14:13;10.90;99.90
29891;DHT22;16759;49.540;8.642;2022-11-10T17:16:39;10.80;99.90
29891;DHT22;16759;49.540;8.642;2022-11-10T17:19:15;10.90;99.90
29891;DHT22;16759;49.540;8.642;2022-11-10T17:21:41;10.90;99.90
29891;DHT22;16759;49.540;8.642;2022-11-10T17:24:09;10.90;99.90
29891;DHT22;16759;49.540;8.642;2022-11-10T17:26:36;10.70;99.90